Time;durP1;ratioP1;P1;durP2;ratioP2;P2;SDS_P1;SDS_P2;PMS_P1;PMS_P2;Temp;Humidity;BMP_temperature;BMP_pressure;BME280_temperature;BME280_humidity;BME280_pressure;Samples;Min_cycle;Max_cycle;Signal;HPM_P1;HPM_P2
2021/12/12 00:02:09;;;;;;;5.43;2.13;;;;;;;-1.25;97.09;97140.06;5002716;28;20045;-72
2021/12/12 00:04:38;;;;;;;17.00;4.93;;;;;;;-1.28;97.61;97129.88;5002518;28;20540;-74
2021/12/12 00:07:08;;;;;;;14.60;4.40;;;;;;;-1.29;97.95;97128.25;5002956;28;20034;-72
2021/12/12 00:09:45;;;;;;;11.35;3.47;;;;;;;-1.28;98.32;97129.88;5003691;28;20069;-73
2021/12/12 00:12:37;;;;;;;11.52;3.47;;;;;;;-1.26;98.27;97135.78;5003141;28;20038;-72
2021/12/12 00:15:05;;;;;;;11.80;4.55;;;;;;;-1.27;97.07;97128.91;5002724;28;20042;-73
2021/12/12 00:17:31;;;;;;;8.05;3.20;;;;;;;-1.26;97.52;97125.28;5001877;28;20025;-72
2021/12/12 00:19:56;;;;;;;10.85;4.75;;;;;;;-1.28;97.70;97129.88;5002997;28;20045;-72
2021/12/12 00:22:25;;;;;;;11.30;4.53;;;;;;;-1.26;98.24;97122.66;5003925;28;20631;-72
2021/12/12 00:24:51;;;;;;;7.45;3.13;;;;;;;-1.22;97.74;97129.25;5002224;28;20551;-72
2021/12/12 00:27:19;;;;;;;14.18;3.58;;;;;;;-1.17;98.08;97129.59;5001991;28;20045;-74
2021/12/12 00:29:45;;;;;;;5.35;2.92;;;;;;;-1.12;98.00;97127.31;5002378;28;20049;-72
2021/12/12 00:32:15;;;;;;;11.52;3.60;;;;;;;-1.05;97.72;97138.00;4999071;28;20052;-73
2021/12/12 00:34:50;;;;;;;6.95;3.05;;;;;;;-1.01;97.56;97134.91;5002070;28;20489;-72
2021/12/12 00:37:16;;;;;;;11.63;3.20;;;;;;;-0.97;97.24;97136.22;5000762;28;20038;-73
2021/12/12 00:39:50;;;;;;;12.63;3.35;;;;;;;-0.92;97.34;97149.72;5003079;28;20369;-73
2021/12/12 00:42:20;;;;;;;15.95;2.90;;;;;;;-0.89;97.75;97136.25;5000412;28;20026;-72
2021/12/12 00:44:52;;;;;;;11.38;3.65;;;;;;;-0.87;97.21;97144.78;5002658;28;20038;-71
2021/12/12 00:47:18;;;;;;;11.90;3.55;;;;;;;-0.87;97.49;97136.09;5002006;28;20108;-72
2021/12/12 00:49:44;;;;;;;5.18;2.33;;;;;;;-0.83;97.14;97141.88;5001641;28;20416;-75
2021/12/12 00:52:13;;;;;;;10.45;3.58;;;;;;;-0.82;96.56;97148.75;5000567;28;20041;-72
2021/12/12 00:54:41;;;;;;;10.95;2.95;;;;;;;-0.80;97.28;97160.75;5001871;28;20025;-72
2021/12/12 00:57:11;;;;;;;13.45;3.50;;;;;;;-0.75;96.60;97147.13;5002425;28;20143;-72
2021/12/12 00:59:37;;;;;;;5.75;3.08;;;;;;;-0.71;97.11;97138.75;5002461;28;20037;-72
2021/12/12 01:02:06;;;;;;;8.45;3.55;;;;;;;-0.68;97.45;97137.63;5000403;28;20053;-72
2021/12/12 01:04:38;;;;;;;17.67;4.03;;;;;;;-0.56;97.09;97155.53;5001623;28;20428;-73
2021/12/12 01:07:05;;;;;;;;;;;;;;;-0.52;97.04;97160.50;5002091;28;20046;-72
2021/12/12 01:09:35;;;;;;;7.20;3.70;;;;;;;-0.51;97.09;97152.44;5002682;28;19913;-73
2021/12/12 01:12:06;;;;;;;8.25;2.83;;;;;;;-0.45;96.96;97162.31;4984059;28;20116;-72
2021/12/12 01:14:37;;;;;;;10.30;3.95;;;;;;;-0.44;97.39;97156.06;5001913;28;20041;-72
2021/12/12 01:17:08;;;;;;;15.10;3.08;;;;;;;-0.45;96.86;97162.31;5001909;28;20045;-74
2021/12/12 01:19:44;;;;;;;12.63;3.60;;;;;;;-0.44;96.82;97158.69;5002973;28;20037;-72
2021/12/12 01:22:23;;;;;;;19.40;4.90;;;;;;;-0.45;96.96;97150.97;5001633;28;20061;-72
2021/12/12 01:24:51;;;;;;;11.93;4.53;;;;;;;-0.47;97.41;97155.56;5002091;28;20046;-71
2021/12/12 01:27:18;;;;;;;13.23;4.13;;;;;;;-0.48;97.51;97149.47;5000767;28;20048;-73
2021/12/12 01:29:43;;;;;;;14.82;3.60;;;;;;;-0.50;97.56;97148.81;5002912;28;20365;-72
2021/12/12 01:32:21;;;;;;;7.65;3.92;;;;;;;-0.53;98.03;97154.41;5000928;28;20050;-72
2021/12/12 01:34:50;;;;;;;11.57;2.83;;;;;;;-0.54;97.88;97154.56;5002090;28;20042;-72
2021/12/12 01:39:57;;;;;;;11.50;4.28;;;;;;;-0.51;98.10;97141.09;5000933;28;20257;-72
2021/12/12 01:42:29;;;;;;;16.13;4.70;;;;;;;-0.54;97.83;97151.91;5002250;28;20038;-73
2021/12/12 01:45:36;;;;;;;14.10;4.35;;;;;;;-0.56;98.00;97158.16;5000663;28;20073;-74
2021/12/12 01:48:14;;;;;;;20.15;4.47;;;;;;;-0.54;98.39;97155.41;4917903;29;20503;-73
2021/12/12 01:50:44;;;;;;;16.10;4.55;;;;;;;-0.54;98.37;97144.03;4978336;28;20099;-72
2021/12/12 01:53:13;;;;;;;9.75;3.88;;;;;;;-0.59;98.64;97147.97;5005411;28;20054;-72
2021/12/12 01:56:06;;;;;;;14.55;3.97;;;;;;;-0.63;98.25;97130.88;5005621;28;20042;-73
2021/12/12 01:58:34;;;;;;;10.93;5.13;;;;;;;-0.55;98.33;97151.09;5004947;28;20507;-72
2021/12/12 02:01:06;;;;;;;17.63;4.93;;;;;;;-0.56;98.97;97139.75;5004348;28;20066;-72
2021/12/12 02:03:36;;;;;;;7.95;4.15;;;;;;;-0.58;99.12;97136.47;5005034;28;20041;-75
2021/12/12 02:06:07;;;;;;;11.88;3.92;;;;;;;-0.59;98.63;97132.22;5004986;28;20060;-75
2021/12/12 02:08:33;;;;;;;16.60;4.10;;;;;;;-0.64;98.39;97131.88;5010170;28;20037;-71
2021/12/12 02:11:05;;;;;;;7.68;3.53;;;;;;;-0.65;99.21;97137.28;5010382;28;20045;-72
2021/12/12 02:13:38;;;;;;;16.95;3.92;;;;;;;-0.70;99.09;97127.28;5008796;28;20065;-72
2021/12/12 02:16:04;;;;;;;10.85;3.88;;;;;;;-0.71;98.93;97133.50;5002761;28;20128;-74
2021/12/12 02:18:35;;;;;;;12.55;4.60;;;;;;;-0.73;99.38;97127.59;5005305;28;20488;-72
2021/12/12 02:21:22;;;;;;;19.63;5.03;;;;;;;-0.75;100.00;97128.75;5004298;28;20444;-74
2021/12/12 02:37:28;;;;;;;9.13;3.00;;;;;;;-0.79;99.70;97127.41;5005976;28;20053;-71
2021/12/12 02:39:55;;;;;;;9.07;3.17;;;;;;;-0.82;100.00;97114.59;5008505;28;20366;-73
2021/12/12 02:42:23;;;;;;;12.63;4.53;;;;;;;-0.83;99.49;97120.84;5006685;28;20073;-72
2021/12/12 02:44:53;;;;;;;9.07;3.80;;;;;;;-0.86;100.00;97117.56;5004984;28;20393;-73
2021/12/12 02:47:21;;;;;;;9.20;3.85;;;;;;;-0.92;100.00;97120.81;5004054;28;20095;-72
2021/12/12 02:52:19;;;;;;;12.77;4.30;;;;;;;-0.91;99.98;97119.84;5005622;28;20037;-71
2021/12/12 02:54:45;;;;;;;9.18;3.38;;;;;;;-0.88;99.97;97123.94;5004714;28;20374;-72
2021/12/12 02:57:13;;;;;;;8.35;3.05;;;;;;;-0.85;99.30;97124.44;5002954;28;20403;-74
2021/12/12 02:59:41;;;;;;;6.82;2.25;;;;;;;-0.86;99.80;97125.44;5003691;28;20038;-71
2021/12/12 03:02:11;;;;;;;9.55;3.03;;;;;;;-0.75;99.63;97131.38;5001965;28;20657;-72
2021/12/12 03:04:38;;;;;;;6.57;2.67;;;;;;;-0.70;99.92;97132.53;5003855;28;20048;-72
2021/12/12 03:07:06;;;;;;;13.10;3.35;;;;;;;-0.70;99.18;97119.41;5003230;28;20044;-73
2021/12/12 03:09:37;;;;;;;19.38;3.92;;;;;;;-0.67;99.35;97126.13;5003655;28;20117;-72
2021/12/12 03:12:08;;;;;;;6.40;2.40;;;;;;;-0.65;98.73;97129.41;5002065;28;20116;-73
2021/12/12 03:14:35;;;;;;;11.00;3.13;;;;;;;-0.69;99.55;97128.91;5003925;28;20034;-72
2021/12/12 03:17:05;;;;;;;9.73;2.25;;;;;;;-0.73;98.80;97130.22;5002702;28;20033;-73
2021/12/12 03:19:31;;;;;;;8.15;3.53;;;;;;;-0.73;99.23;97124.13;5003453;28;20046;-73
2021/12/12 03:21:57;;;;;;;8.68;3.65;;;;;;;-0.71;98.90;97120.34;5003939;28;20084;-72
2021/12/12 03:24:26;;;;;;;7.93;2.25;;;;;;;-0.68;98.30;97124.47;5005612;28;20046;-72
2021/12/12 03:26:57;;;;;;;7.70;3.00;;;;;;;-0.60;98.69;97124.50;5003779;28;20038;-71
2021/12/12 03:29:24;;;;;;;8.65;2.95;;;;;;;-0.52;98.09;97124.50;5004399;28;20515;-74
2021/12/12 03:32:00;;;;;;;7.88;2.65;;;;;;;-0.49;98.50;97118.91;5003603;28;20049;-71
2021/12/12 03:34:30;;;;;;;8.05;2.00;;;;;;;-0.42;98.22;97129.59;5003357;28;20033;-73
2021/12/12 03:36:57;;;;;;;9.45;3.58;;;;;;;-0.39;98.17;97135.38;5003013;28;20100;-72
2021/12/12 03:39:30;;;;;;;9.48;3.03;;;;;;;-0.37;98.67;97122.06;5002116;28;20034;-72
2021/12/12 03:42:00;;;;;;;12.63;3.15;;;;;;;-0.30;97.99;97128.31;5003896;28;20119;-72
2021/12/12 03:44:30;;;;;;;9.77;3.40;;;;;;;-0.33;98.45;97125.97;5003645;28;20228;-71
2021/12/12 03:47:04;;;;;;;10.25;2.65;;;;;;;-0.32;98.35;97131.06;5001900;28;20042;-73
2021/12/12 03:49:36;;;;;;;10.85;3.60;;;;;;;-0.33;98.26;97120.72;5003654;28;20069;-72
2021/12/12 03:52:02;;;;;;;11.82;2.60;;;;;;;-0.34;98.27;97133.06;5002380;28;20056;-72
2021/12/12 03:54:27;;;;;;;5.97;2.85;;;;;;;-0.37;98.49;97129.94;5003439;28;20025;-73
2021/12/12 03:56:53;;;;;;;7.55;2.83;;;;;;;-0.40;98.12;97122.34;4969592;28;20388;-72
2021/12/12 03:59:18;;;;;;;13.25;3.85;;;;;;;-0.26;98.29;97140.13;5003478;28;20623;-71
2021/12/12 04:01:49;;;;;;;11.35;3.20;;;;;;;-0.31;98.67;97140.63;5002978;28;20049;-71
2021/12/12 04:04:20;;;;;;;14.05;3.97;;;;;;;-0.31;98.57;97138.00;4978506;28;20469;-71
2021/12/12 04:06:47;;;;;;;6.88;3.15;;;;;;;-0.33;98.25;97147.84;5002002;28;20037;-71
2021/12/12 04:09:14;;;;;;;9.30;2.55;;;;;;;-0.34;98.96;97140.13;5003202;28;20405;-71
2021/12/12 04:11:44;;;;;;;14.40;3.53;;;;;;;-0.30;98.83;97144.91;5002189;28;20030;-71
2021/12/12 04:14:11;;;;;;;4.63;1.60;;;;;;;-0.33;98.87;97141.75;4999695;28;20662;-71
2021/12/12 04:16:40;;;;;;;11.02;3.05;;;;;;;-0.29;99.14;97143.91;5003479;28;20061;-71
2021/12/12 04:19:07;;;;;;;7.00;2.58;;;;;;;-0.26;99.42;97147.19;5004658;28;20391;-71
2021/12/12 04:21:34;;;;;;;11.68;3.38;;;;;;;-0.23;98.75;97137.19;5003693;28;20030;-72
2021/12/12 04:24:00;;;;;;;7.25;3.33;;;;;;;-0.22;99.31;97148.53;5001822;28;20038;-71
2021/12/12 04:26:32;;;;;;;12.02;2.90;;;;;;;-0.21;99.31;97156.25;5000522;28;20492;-72
2021/12/12 04:29:07;;;;;;;10.05;3.25;;;;;;;-0.18;98.93;97160.34;5000582;28;20376;-72
2021/12/12 04:31:35;;;;;;;7.35;2.40;;;;;;;-0.21;98.97;97151.00;5001225;28;20232;-71
2021/12/12 04:34:01;;;;;;;8.25;3.92;;;;;;;-0.20;99.96;97152.63;5001718;28;20136;-71
2021/12/12 04:36:32;;;;;;;13.05;3.60;;;;;;;-0.18;99.26;97155.09;5001378;28;20887;-73
2021/12/12 04:39:00;;;;;;;10.52;3.35;;;;;;;-0.22;99.06;97159.88;5002263;28;20092;-72
2021/12/12 04:41:25;;;;;;;15.63;3.85;;;;;;;-0.22;99.22;97161.69;4985270;28;20385;-72
2021/12/12 04:43:51;;;;;;;12.55;4.32;;;;;;;-0.19;98.74;97156.09;5002276;28;20038;-72
2021/12/12 04:46:25;;;;;;;11.02;3.45;;;;;;;-0.24;99.54;97156.56;5003172;28;20046;-72
2021/12/12 04:51:48;;;;;;;10.93;3.05;;;;;;;-0.22;99.42;97166.94;5001103;28;20091;-72
2021/12/12 04:54:24;;;;;;;12.98;3.88;;;;;;;-0.26;99.64;97165.59;5002046;28;20046;-72
2021/12/12 04:57:00;;;;;;;11.63;2.90;;;;;;;-0.29;99.09;97158.88;5003391;28;20624;-71
2021/12/12 04:59:25;;;;;;;9.00;3.67;;;;;;;-0.21;99.73;97168.59;5003122;28;20030;-72
2021/12/12 05:02:17;;;;;;;7.82;2.90;;;;;;;-0.22;99.84;97172.19;5001725;28;20042;-73
2021/12/12 05:05:06;;;;;;;21.08;4.22;;;;;;;-0.18;100.00;97161.16;5001072;28;20046;-72
2021/12/12 05:07:52;;;;;;;15.32;3.00;;;;;;;-0.22;99.69;97166.94;4986112;28;20041;-71
2021/12/12 05:10:23;;;;;;;5.25;2.08;;;;;;;-0.19;100.00;97166.59;5002536;28;20046;-74
2021/12/12 05:12:58;;;;;;;5.75;1.40;;;;;;;-0.30;99.75;97151.97;5002456;28;20115;-72
2021/12/12 05:15:30;;;;;;;7.32;2.15;;;;;;;-0.25;99.97;97162.00;5003506;28;20140;-73
2021/12/12 05:17:59;;;;;;;16.23;3.38;;;;;;;-0.31;100.00;97161.69;5000589;28;20030;-71
2021/12/12 05:20:49;;;;;;;10.70;3.17;;;;;;;-0.29;99.74;97158.88;5002876;28;20042;-72
2021/12/12 05:23:19;;;;;;;12.52;3.45;;;;;;;-0.42;100.00;97154.09;5002056;28;20342;-71
2021/12/12 05:25:50;;;;;;;13.90;3.67;;;;;;;-0.36;100.00;97155.25;4987599;28;20049;-72
2021/12/12 05:28:21;;;;;;;15.13;4.85;;;;;;;-0.32;100.00;97154.75;5005301;28;20034;-72
2021/12/12 05:30:50;;;;;;;10.50;4.28;;;;;;;-0.38;100.00;97151.97;5003564;28;20038;-71
2021/12/12 05:33:17;;;;;;;11.60;4.18;;;;;;;-0.33;100.00;97157.53;5004950;28;20325;-72
2021/12/12 05:35:47;;;;;;;11.95;3.38;;;;;;;-0.33;100.00;97166.25;5005985;28;20057;-71
2021/12/12 05:38:14;;;;;;;13.25;4.13;;;;;;;-0.33;100.00;97166.25;5005428;28;20062;-72
2021/12/12 05:40:43;;;;;;;12.20;3.60;;;;;;;-0.33;100.00;97173.31;5006652;28;20465;-71
2021/12/12 05:43:12;;;;;;;10.07;5.22;;;;;;;-0.34;100.00;97161.16;5005031;28;20042;-74
2021/12/12 05:45:38;;;;;;;8.98;2.47;;;;;;;-0.34;100.00;97154.09;5006553;28;20049;-71
2021/12/12 05:48:05;;;;;;;7.75;3.47;;;;;;;-0.38;100.00;97168.56;5004451;28;20318;-72
2021/12/12 05:50:31;;;;;;;3.95;2.28;;;;;;;-0.46;100.00;97163.31;5006662;28;20034;-74
2021/12/12 05:52:57;;;;;;;4.13;2.53;;;;;;;-0.54;100.00;97151.91;5005068;28;20073;-71
2021/12/12 05:55:29;;;;;;;14.40;3.72;;;;;;;-0.46;100.00;97165.13;5006196;28;20740;-71
2021/12/12 05:57:56;;;;;;;6.07;2.25;;;;;;;-0.46;100.00;97165.94;5003597;28;20038;-71
2021/12/12 06:01:15;;;;;;;15.05;4.20;;;;;;;-0.40;100.00;97175.78;5003740;28;20030;-71
2021/12/12 06:03:42;;;;;;;12.18;3.22;;;;;;;-0.44;100.00;97173.66;4982085;28;20461;-71
2021/12/12 06:06:15;;;;;;;7.55;3.17;;;;;;;-0.46;100.00;97175.63;5003629;28;20339;-73
2021/12/12 06:08:43;;;;;;;7.40;3.30;;;;;;;-0.49;100.00;97179.38;5004297;28;20037;-71
2021/12/12 06:11:10;;;;;;;8.65;2.80;;;;;;;-0.47;100.00;97180.03;5005551;28;20743;-72
2021/12/12 06:13:38;;;;;;;4.82;2.33;;;;;;;-0.43;100.00;97186.63;5005387;28;20038;-72
2021/12/12 06:16:06;;;;;;;12.48;3.95;;;;;;;-0.39;100.00;97179.22;5005131;28;20049;-72
2021/12/12 06:18:34;;;;;;;8.93;3.60;;;;;;;-0.40;100.00;97196.81;5005143;28;20045;-72
2021/12/12 06:21:00;;;;;;;8.50;3.38;;;;;;;-0.43;100.00;97184.00;5008958;28;20045;-73
2021/12/12 06:23:27;;;;;;;12.63;3.28;;;;;;;-0.42;100.00;97196.16;5007770;28;20462;-72
2021/12/12 06:25:53;;;;;;;6.43;3.05;;;;;;;-0.40;100.00;97190.72;5005992;28;20115;-74
2021/12/12 06:28:24;;;;;;;7.15;2.58;;;;;;;-0.41;100.00;97187.28;5003305;28;20048;-73
2021/12/12 06:30:51;;;;;;;8.33;2.83;;;;;;;-0.38;100.00;97179.09;5004791;28;20468;-72
2021/12/12 06:33:17;;;;;;;10.43;4.10;;;;;;;-0.28;100.00;97179.75;5005567;28;20372;-72
2021/12/12 06:35:43;;;;;;;5.82;2.70;;;;;;;-0.36;100.00;97176.28;5005837;28;20481;-74
2021/12/12 06:38:11;;;;;;;10.45;3.78;;;;;;;-0.43;100.00;97170.03;5003872;28;20069;-72
2021/12/12 06:40:38;;;;;;;5.50;2.00;;;;;;;-0.37;100.00;97179.91;5005611;28;20210;-71
2021/12/12 06:43:05;;;;;;;9.30;3.00;;;;;;;-0.37;100.00;97172.03;5003375;28;20026;-72
2021/12/12 06:45:32;;;;;;;12.13;3.40;;;;;;;-0.38;100.00;97167.75;5007055;28;20037;-74
2021/12/12 06:47:57;;;;;;;9.98;3.65;;;;;;;-0.36;100.00;97171.84;5003573;28;20038;-73
2021/12/12 06:50:26;;;;;;;9.57;2.97;;;;;;;-0.32;100.00;97174.97;5005193;28;20045;-72
2021/12/12 06:52:53;;;;;;;8.68;2.72;;;;;;;-0.28;100.00;97176.31;5003502;28;20046;-73
2021/12/12 06:55:19;;;;;;;18.63;3.30;;;;;;;-0.31;100.00;97166.94;5005599;28;20108;-72
2021/12/12 06:57:45;;;;;;;6.78;2.72;;;;;;;-0.32;100.00;97172.34;5004748;28;20393;-71
2021/12/12 07:00:15;;;;;;;16.33;4.28;;;;;;;-0.30;100.00;97180.91;5003912;28;20473;-72
2021/12/12 07:02:42;;;;;;;12.15;3.25;;;;;;;-0.30;100.00;97180.91;4985324;28;20050;-71
2021/12/12 07:05:11;;;;;;;11.50;2.75;;;;;;;-0.23;100.00;97178.44;5002267;28;20267;-72
2021/12/12 07:07:37;;;;;;;10.32;3.30;;;;;;;-0.07;100.00;97192.44;5002444;28;20025;-72
2021/12/12 07:10:05;;;;;;;9.80;2.65;;;;;;;0.08;100.00;97189.97;4985653;28;20493;-71
2021/12/12 07:12:32;;;;;;;13.00;2.88;;;;;;;0.18;100.00;97195.88;5003140;28;20483;-71
2021/12/12 07:14:57;;;;;;;4.97;1.92;;;;;;;0.21;100.00;97187.66;5002912;28;20144;-73
2021/12/12 07:17:23;;;;;;;7.47;2.70;;;;;;;0.19;100.00;97188.81;5003693;28;20722;-71
2021/12/12 07:19:50;;;;;;;9.80;3.25;;;;;;;0.30;100.00;97196.34;5003618;28;20486;-72
2021/12/12 07:22:16;;;;;;;8.23;2.28;;;;;;;0.28;100.00;97200.97;4996844;28;20058;-72
2021/12/12 07:24:42;;;;;;;7.53;3.03;;;;;;;0.28;100.00;97193.91;5005012;28;20112;-71
2021/12/12 07:27:09;;;;;;;6.00;1.73;;;;;;;0.25;100.00;97186.34;5004315;28;20042;-73
2021/12/12 07:29:35;;;;;;;10.48;2.67;;;;;;;0.21;100.00;97184.19;5003975;28;20040;-74
2021/12/12 07:32:01;;;;;;;7.22;2.78;;;;;;;0.19;100.00;97181.72;5003814;28;20034;-73
2021/12/12 07:34:29;;;;;;;7.65;2.53;;;;;;;0.19;100.00;97189.63;5005350;28;20041;-72
2021/12/12 07:36:59;;;;;;;6.50;1.80;;;;;;;0.23;100.00;97193.59;5003389;28;20092;-71
2021/12/12 07:39:27;;;;;;;10.00;2.35;;;;;;;0.24;100.00;97189.97;5006240;28;20420;-72
2021/12/12 07:41:55;;;;;;;10.43;2.35;;;;;;;0.18;100.00;97195.88;4986653;28;20429;-72
2021/12/12 07:44:28;;;;;;;5.35;2.00;;;;;;;0.15;100.00;97187.47;5004432;28;20084;-74
2021/12/12 07:46:54;;;;;;;8.13;3.25;;;;;;;0.18;100.00;97190.63;5003982;28;20072;-72
2021/12/12 07:49:22;;;;;;;10.68;2.20;;;;;;;0.09;100.00;97194.25;5004246;28;20449;-72
2021/12/12 07:51:48;;;;;;;6.70;2.92;;;;;;;0.03;100.00;97187.00;5004710;28;20030;-71
2021/12/12 07:54:14;;;;;;;6.88;2.58;;;;;;;0.06;100.00;97184.03;5002843;28;20073;-72
2021/12/12 07:56:42;;;;;;;9.50;2.45;;;;;;;0.07;100.00;97176.97;5004879;28;20503;-72
2021/12/12 07:59:10;;;;;;;2.40;1.30;;;;;;;0.03;100.00;97176.47;5004916;28;20070;-72
2021/12/12 08:01:39;;;;;;;6.93;3.10;;;;;;;0.12;100.00;97191.28;5001964;28;20104;-72
2021/12/12 08:04:05;;;;;;;5.88;2.42;;;;;;;0.06;100.00;97181.41;5005101;28;20048;-72
2021/12/12 08:06:31;;;;;;;6.97;1.92;;;;;;;0.05;100.00;97187.66;5005059;28;20034;-74
2021/12/12 08:08:57;;;;;;;4.85;1.95;;;;;;;0.07;100.00;97192.75;5004923;28;20034;-73
2021/12/12 08:11:27;;;;;;;6.72;2.25;;;;;;;0.16;100.00;97192.59;5004607;28;20022;-74
2021/12/12 08:14:16;;;;;;;5.85;1.63;;;;;;;0.17;100.00;97178.44;2956887;28;10003370;-72
2021/12/12 08:16:43;;;;;;;3.95;1.73;;;;;;;0.23;100.00;97180.44;3277265;28;10001432;-71
2021/12/12 08:19:10;;;;;;;4.70;1.98;;;;;;;0.31;100.00;97184.84;5002237;28;20036;-72
2021/12/12 08:21:38;;;;;;;3.70;1.55;;;;;;;0.33;100.00;97184.69;5003346;28;20033;-72
2021/12/12 08:24:09;;;;;;;4.95;2.20;;;;;;;0.31;100.00;97184.84;5003093;28;20046;-72
2021/12/12 08:26:39;;;;;;;3.22;1.73;;;;;;;0.28;100.00;97182.53;5004100;28;20065;-73
2021/12/12 08:29:06;;;;;;;5.40;1.67;;;;;;;0.27;100.00;97187.00;5005637;28;20311;-73
2021/12/12 08:31:31;;;;;;;3.92;1.50;;;;;;;0.32;100.00;97199.66;5003249;28;20052;-72
2021/12/12 08:33:57;;;;;;;3.13;1.33;;;;;;;0.43;100.00;97198.50;5002975;28;20038;-72
2021/12/12 08:36:23;;;;;;;2.72;1.35;;;;;;;0.48;100.00;97201.47;5005378;28;20133;-71
2021/12/12 08:38:49;;;;;;;3.10;1.42;;;;;;;0.39;100.00;97178.72;5003291;28;20511;-74
2021/12/12 08:41:15;;;;;;;3.35;1.58;;;;;;;0.45;100.00;97183.34;5003870;28;20046;-71
2021/12/12 08:43:43;;;;;;;3.33;1.65;;;;;;;0.47;100.00;97194.56;5004532;28;20435;-73
2021/12/12 08:46:12;;;;;;;3.28;2.03;;;;;;;0.50;100.00;97210.00;5004530;28;20526;-72
2021/12/12 08:48:43;;;;;;;5.00;2.05;;;;;;;0.51;100.00;97209.84;5003191;28;20076;-73
2021/12/12 08:51:17;;;;;;;5.10;1.70;;;;;;;0.51;100.00;97209.00;5001401;28;20037;-72
2021/12/12 08:53:45;;;;;;;6.05;2.80;;;;;;;0.53;100.00;97201.75;5004313;28;20026;-72
2021/12/12 08:56:19;;;;;;;5.32;2.33;;;;;;;0.55;100.00;97219.06;5004490;28;20453;-72
2021/12/12 08:58:47;;;;;;;4.20;2.20;;;;;;;0.58;100.00;97207.34;5007569;28;20477;-72
2021/12/12 09:01:16;;;;;;;7.22;3.72;;;;;;;0.56;100.00;97211.97;5006679;28;20208;-72
2021/12/12 09:04:02;;;;;;;6.22;3.53;;;;;;;0.57;100.00;97204.91;5007683;28;20048;-73
2021/12/12 09:06:32;;;;;;;9.18;4.85;;;;;;;0.59;100.00;97208.19;5006749;28;20385;-72
2021/12/12 09:09:07;;;;;;;5.47;2.97;;;;;;;0.57;100.00;97213.63;5007804;28;20038;-72
2021/12/12 09:11:45;;;;;;;9.45;4.95;;;;;;;0.63;100.00;97212.97;4990703;28;20370;-73
2021/12/12 09:14:18;;;;;;;5.63;2.95;;;;;;;0.60;100.00;97204.56;5006934;28;20061;-73
2021/12/12 09:17:09;;;;;;;7.70;4.55;;;;;;;0.68;100.00;97215.88;5007283;28;20065;-72
2021/12/12 09:19:40;;;;;;;5.20;2.08;;;;;;;0.66;100.00;97217.88;4998215;28;20050;-72
2021/12/12 09:22:15;;;;;;;5.97;2.60;;;;;;;0.54;100.00;97222.69;5008191;28;20030;-73
2021/12/12 09:24:51;;;;;;;5.07;2.47;;;;;;;0.72;100.00;97219.84;5007242;28;20042;-72
2021/12/12 09:27:30;;;;;;;4.60;2.38;;;;;;;0.70;100.00;97227.09;5007261;28;20422;-73
2021/12/12 09:30:10;;;;;;;4.40;2.42;;;;;;;0.74;100.00;97211.78;5006731;28;20042;-72
2021/12/12 09:32:41;;;;;;;4.35;2.00;;;;;;;0.78;100.00;97218.38;5007372;28;20040;-72
2021/12/12 09:35:28;;;;;;;10.35;5.88;;;;;;;0.86;100.00;97214.84;5003559;28;20088;-72
2021/12/12 09:38:03;;;;;;;9.05;4.28;;;;;;;0.90;100.00;97218.81;5005247;28;20148;-73
2021/12/12 09:40:34;;;;;;;7.50;4.38;;;;;;;0.82;100.00;97203.84;5007404;28;20496;-71
2021/12/12 09:43:03;;;;;;;;;;;;;;;0.84;100.00;97207.13;5007518;28;20316;-73
2021/12/12 09:45:41;;;;;;;7.18;3.90;;;;;;;0.97;100.00;97201.31;5004166;28;19972;-72
2021/12/12 09:51:59;;;;;;;3.95;2.22;;;;;;;0.90;100.00;97217.00;4984400;28;20054;-73
2021/12/12 09:55:07;;;;;;;4.85;2.78;;;;;;;0.97;100.00;97211.88;5004392;28;20436;-72
2021/12/12 09:57:42;;;;;;;4.93;2.15;;;;;;;1.00;100.00;97216.78;5007103;28;20026;-71
2021/12/12 10:00:36;;;;;;;6.22;3.03;;;;;;;1.09;100.00;97218.44;5004538;28;20046;-72
2021/12/12 10:03:32;;;;;;;4.63;2.92;;;;;;;1.19;100.00;97215.59;5005336;28;20042;-72
2021/12/12 10:06:04;;;;;;;5.75;2.78;;;;;;;1.22;100.00;97217.88;5005333;28;20030;-72
2021/12/12 10:08:55;;;;;;;4.55;2.55;;;;;;;1.25;100.00;97214.91;5005087;28;20100;-72
2021/12/12 10:11:35;;;;;;;3.40;2.15;;;;;;;1.14;100.00;97207.34;4983280;28;20378;-73
2021/12/12 10:14:05;;;;;;;4.63;2.28;;;;;;;1.14;100.00;97207.34;5005384;28;20069;-72
2021/12/12 10:16:47;;;;;;;6.38;3.15;;;;;;;1.15;100.00;97201.09;5008211;28;20255;-74
2021/12/12 10:19:39;;;;;;;3.03;1.92;;;;;;;1.10;100.00;97209.53;5006456;28;20061;-72
2021/12/12 10:22:25;;;;;;;7.35;2.88;;;;;;;1.21;100.00;97211.78;5006124;28;20488;-72
2021/12/12 10:25:13;;;;;;;3.75;2.05;;;;;;;1.31;100.00;97214.19;5006174;28;20074;-72
2021/12/12 10:28:08;;;;;;;4.32;2.25;;;;;;;1.28;100.00;97198.72;5006197;28;20168;-72
2021/12/12 10:30:41;;;;;;;4.72;2.47;;;;;;;1.38;100.00;97215.97;5006914;28;20042;-72
2021/12/12 10:33:41;;;;;;;3.63;1.52;;;;;;;1.48;100.00;97214.94;5018951;28;20046;-74
2021/12/12 10:36:10;;;;;;;8.07;3.75;;;;;;;1.59;100.00;97211.94;4997894;28;20136;-72
2021/12/12 10:39:06;;;;;;;4.03;2.08;;;;;;;1.65;100.00;97224.44;5006865;28;20038;-72
2021/12/12 10:41:38;;;;;;;6.50;2.83;;;;;;;1.63;100.00;97219.34;5006191;28;20042;-73
2021/12/12 10:44:22;;;;;;;5.63;2.60;;;;;;;1.68;100.00;97216.16;5005802;28;20041;-74
2021/12/12 10:46:53;;;;;;;6.10;2.92;;;;;;;1.81;100.00;97215.59;5005266;28;20083;-72
2021/12/12 10:49:25;;;;;;;5.88;3.30;;;;;;;1.88;100.00;97209.44;5005297;28;20586;-73
2021/12/12 10:52:06;;;;;;;8.90;3.60;;;;;;;2.01;100.00;97206.19;5004588;28;20042;-72
2021/12/12 10:54:49;;;;;;;7.00;3.03;;;;;;;1.92;100.00;97207.25;5005611;28;20225;-73
2021/12/12 10:57:22;;;;;;;4.20;2.17;;;;;;;1.91;100.00;97211.72;5004100;28;20066;-72
2021/12/12 10:59:56;;;;;;;5.15;2.45;;;;;;;2.04;100.00;97215.59;5008406;28;20101;-72
2021/12/12 11:02:29;;;;;;;2.97;1.25;;;;;;;2.00;100.00;97209.03;5005417;28;20104;-72
2021/12/12 11:05:14;;;;;;;4.57;1.90;;;;;;;2.16;100.00;97211.53;5005498;28;20042;-72
2021/12/12 11:07:47;;;;;;;4.60;2.53;;;;;;;2.25;100.00;97207.81;5003700;28;20044;-72
2021/12/12 11:10:18;;;;;;;3.58;2.08;;;;;;;2.41;100.00;97214.78;5006138;28;20050;-72
2021/12/12 11:12:56;;;;;;;5.03;2.03;;;;;;;2.40;100.00;97213.16;5005306;28;20033;-72
2021/12/12 11:15:22;;;;;;;3.60;1.70;;;;;;;2.43;100.00;97202.25;5005587;28;20044;-72
2021/12/12 11:18:01;;;;;;;3.20;1.52;;;;;;;2.37;100.00;97195.84;5004202;28;20045;-71
2021/12/12 11:20:41;;;;;;;3.05;1.40;;;;;;;2.18;100.00;97199.00;5004474;28;20512;-72
2021/12/12 11:23:20;;;;;;;3.60;1.77;;;;;;;2.27;100.00;97205.03;5004939;28;20124;-72
2021/12/12 11:25:55;;;;;;;6.25;2.08;;;;;;;2.31;100.00;97201.84;5005158;28;20446;-73
2021/12/12 11:28:32;;;;;;;4.82;2.17;;;;;;;2.40;100.00;97190.19;5005563;28;20116;-72
2021/12/12 11:31:05;;;;;;;5.80;2.95;;;;;;;2.31;100.00;97187.81;5004244;28;20056;-72
2021/12/12 11:33:33;;;;;;;3.50;1.42;;;;;;;2.19;100.00;97198.00;5005531;28;20112;-74
2021/12/12 11:36:00;;;;;;;3.30;1.50;;;;;;;2.27;100.00;97197.09;5002945;28;20042;-73
2021/12/12 11:38:46;;;;;;;5.00;2.15;;;;;;;2.27;100.00;97190.00;5003614;28;20080;-72
2021/12/12 11:41:25;;;;;;;4.00;2.00;;;;;;;2.13;100.00;97190.78;5003519;28;20472;-72
2021/12/12 11:44:13;;;;;;;5.55;2.47;;;;;;;2.23;100.00;97186.88;5111237;27;20483;-72
2021/12/12 11:46:49;;;;;;;5.93;1.88;;;;;;;2.27;100.00;97178.63;5112909;28;20871;-71
2021/12/12 11:49:27;;;;;;;4.15;2.03;;;;;;;2.43;100.00;97175.81;5111918;27;20062;-73
2021/12/12 11:52:05;;;;;;;5.50;1.95;;;;;;;2.47;100.00;97182.38;5112220;27;20153;-76
2021/12/12 11:54:49;;;;;;;5.47;2.13;;;;;;;2.50;100.00;97180.22;5111114;27;20059;-73
2021/12/12 11:57:25;;;;;;;5.10;2.22;;;;;;;2.60;100.00;97187.06;5111817;27;20078;-72
2021/12/12 12:00:31;;;;;;;8.77;2.60;;;;;;;2.68;100.00;97189.63;5103842;28;20040;-75
2021/12/12 12:03:12;;;;;;;4.57;2.50;;;;;;;2.83;100.00;97182.50;5042242;28;20106;-73
2021/12/12 12:05:47;;;;;;;5.68;2.67;;;;;;;2.94;100.00;97189.97;5072936;28;20090;-73
2021/12/12 12:08:41;;;;;;;3.53;1.98;;;;;;;2.79;100.00;97191.78;5068758;28;20090;-73
2021/12/12 12:11:44;;;;;;;7.45;2.58;;;;;;;2.70;100.00;97190.25;5035886;28;20106;-71
2021/12/12 12:14:22;;;;;;;4.47;2.30;;;;;;;2.71;100.00;97202.44;5070077;28;20486;-71
2021/12/12 12:17:24;;;;;;;6.72;2.80;;;;;;;2.71;100.00;97202.44;5072084;28;20028;-72
2021/12/12 12:20:29;;;;;;;12.27;2.22;;;;;;;2.65;100.00;97201.38;5064294;28;20056;-73